KQVF

Manda Bay

Manda Bay, Kenya
METAR KQVF 181356Z AUTO VRB06G15KT 9999 CLR 28/27 A2980 RMK AO2 SLP094 WND DATA ESTMD T02800273
Observed Flight Rules
Jan-18 @ 13:56 UTC (30 minutes ago) Visual Flight Rules
Wind Visibility Clouds
Variable at 6 knots
 Gusting to 15 knots
10,000+ meters
  • Clear skies
Temperatures Readings
Current 28°C / 82°F
Dewpoint 27°C / 81°F
Humidity 94%
Altimeter 29.8" Hg
Pressure 1009.4 hPa
METAR KQVF 181356Z AUTO VRB06G15KT 9999 CLR 28/27 A2980 RMK AO2 SLP094 WND DATA ESTMD T02800273
Observed Flight Rules
Jan-18 @ 13:56 UTC
(30 minutes ago)
VFR
Wind Visibility
Variable at 6 knots
 Gusting to 15 knots
10,000+ meters
Clouds
  • Clear skies
Temperature Dewpoint
28°C / 82°F 27°C / 81°F
Humidity Altimeter Pressure
94% 29.8" Hg 1009.4 hPa